Time;durP1;ratioP1;P1;durP2;ratioP2;P2;SDS_P1;SDS_P2;PMS_P1;PMS_P2;Temp;Humidity;BMP_temperature;BMP_pressure;BME280_temperature;BME280_humidity;BME280_pressure;Samples;Min_cycle;Max_cycle;Signal;HPM_P1;HPM_P2
2022/05/25 00:02:10;;;;;;;8.50;4.18;;;;;;;10.72;82.15;101186.88;5037799;28;20020;-48
2022/05/25 00:04:36;;;;;;;5.97;4.15;;;;;;;10.66;82.19;101193.19;5034073;28;20025;-48
2022/05/25 00:07:03;;;;;;;7.00;4.72;;;;;;;10.61;83.24;101188.56;5037847;28;20037;-47
2022/05/25 00:09:28;;;;;;;7.93;4.93;;;;;;;10.58;84.05;101197.84;5035913;28;20112;-49
2022/05/25 00:11:54;;;;;;;5.13;4.30;;;;;;;10.56;85.09;101197.28;5036942;28;20113;-47
2022/05/25 00:14:20;;;;;;;6.80;4.63;;;;;;;10.62;84.44;101194.72;5035531;28;20052;-48
2022/05/25 00:16:45;;;;;;;4.95;4.00;;;;;;;10.62;83.75;101197.41;5036237;28;20039;-48
2022/05/25 00:21:55;;;;;;;7.35;4.15;;;;;;;10.55;82.65;101205.56;5039714;28;20040;-48
2022/05/25 00:24:21;;;;;;;9.23;4.53;;;;;;;10.44;82.66;101207.22;5037670;28;20476;-48
2022/05/25 00:26:46;;;;;;;5.47;4.28;;;;;;;10.38;83.28;101218.88;5037282;28;20024;-48
2022/05/25 00:29:14;;;;;;;5.25;4.05;;;;;;;10.35;85.08;101224.69;5037745;28;20021;-49
2022/05/25 00:31:40;;;;;;;5.93;4.22;;;;;;;10.36;85.75;101222.84;5037869;28;20052;-47
2022/05/25 00:34:07;;;;;;;6.82;4.38;;;;;;;10.34;86.40;101219.56;5037549;28;20059;-47
2022/05/25 00:36:32;;;;;;;6.97;4.45;;;;;;;10.37;85.85;101230.63;5033231;28;20033;-47
2022/05/25 00:38:58;;;;;;;5.88;4.53;;;;;;;10.44;85.04;101227.84;5036941;28;20028;-48
2022/05/25 00:41:28;;;;;;;5.70;3.88;;;;;;;10.46;85.19;101228.44;5031734;28;20017;-47
2022/05/25 00:43:55;;;;;;;6.38;4.13;;;;;;;10.47;84.51;101228.19;5033860;28;20017;-48
2022/05/25 00:46:23;;;;;;;5.05;4.10;;;;;;;10.47;83.43;101232.72;5037920;28;20017;-47
2022/05/25 00:49:10;;;;;;;7.50;3.90;;;;;;;10.29;82.73;101228.31;5036243;28;20494;-48
2022/05/25 00:51:44;;;;;;;5.80;3.90;;;;;;;10.24;83.14;101229.03;5037068;28;20075;-48
2022/05/25 00:54:13;;;;;;;6.32;3.35;;;;;;;10.17;82.95;101217.56;5037889;28;20518;-48
2022/05/25 00:56:42;;;;;;;3.30;2.70;;;;;;;10.13;82.82;101219.09;5036432;28;20014;-47
2022/05/25 00:59:12;;;;;;;4.22;2.58;;;;;;;10.10;82.45;101222.25;5038869;28;20030;-49
2022/05/25 01:01:38;;;;;;;3.70;3.30;;;;;;;9.98;82.86;101216.88;5042093;28;20029;-49
2022/05/25 01:04:04;;;;;;;5.18;2.85;;;;;;;9.90;83.10;101216.44;5042171;28;20123;-48
2022/05/25 01:06:53;;;;;;;3.35;2.90;;;;;;;9.86;83.25;101220.59;5039694;28;20025;-48
2022/05/25 01:10:03;;;;;;;4.43;3.58;;;;;;;9.85;82.95;101230.47;5037574;28;20454;-48
2022/05/25 01:12:56;;;;;;;4.72;3.47;;;;;;;9.81;82.57;101234.66;4971647;28;20105;-48
2022/05/25 01:15:54;;;;;;;3.42;2.88;;;;;;;9.76;83.41;101250.63;5031898;28;20482;-48
2022/05/25 01:18:22;;;;;;;4.50;2.63;;;;;;;9.79;82.88;101246.66;5040273;28;20560;-48
2022/05/25 01:21:23;;;;;;;3.97;3.00;;;;;;;9.75;82.60;101253.53;5036594;28;20082;-49
2022/05/25 01:24:12;;;;;;;5.10;2.28;;;;;;;9.64;82.75;101265.81;5037644;28;20521;-49
2022/05/25 01:27:03;;;;;;;4.30;2.67;;;;;;;9.53;83.07;101255.91;5034867;28;20028;-49
2022/05/25 01:29:53;;;;;;;6.70;3.38;;;;;;;9.54;83.63;101260.22;5037160;28;20029;-48
2022/05/25 01:32:45;;;;;;;8.52;5.07;;;;;;;9.50;83.42;101256.34;5039858;28;20037;-48
2022/05/25 01:35:32;;;;;;;8.63;4.70;;;;;;;9.50;82.94;101251.00;5039120;28;20533;-49
2022/05/25 01:38:14;;;;;;;7.22;4.30;;;;;;;9.44;82.82;101250.06;5036586;28;20577;-46
2022/05/25 01:40:46;;;;;;;5.50;3.63;;;;;;;9.43;82.91;101245.75;5037889;28;20035;-48
2022/05/25 01:43:30;;;;;;;7.30;4.15;;;;;;;9.39;82.68;101237.38;5031963;28;20024;-49
2022/05/25 01:46:03;;;;;;;6.38;4.18;;;;;;;9.45;82.62;101240.19;5038652;28;20029;-49
2022/05/25 01:48:33;;;;;;;5.43;4.22;;;;;;;9.46;82.64;101242.63;5038396;28;20492;-47
2022/05/25 01:51:16;;;;;;;7.15;4.60;;;;;;;9.44;82.85;101246.56;5036567;28;20033;-50
2022/05/25 01:53:46;;;;;;;7.72;5.60;;;;;;;9.37;84.50;101255.53;5035336;28;20513;-48
2022/05/25 01:56:15;;;;;;;7.00;5.05;;;;;;;9.34;85.64;101252.50;5035263;28;20028;-47
2022/05/25 01:58:47;;;;;;;6.05;4.88;;;;;;;9.32;86.26;101251.88;5034094;28;20394;-49
2022/05/25 02:01:13;;;;;;;6.18;4.47;;;;;;;9.30;86.27;101252.09;5041218;28;20032;-47
2022/05/25 02:06:42;;;;;;;8.03;5.40;;;;;;;9.33;87.15;101254.31;5033458;28;20032;-48
2022/05/25 02:09:37;;;;;;;7.40;5.15;;;;;;;9.27;87.30;101249.06;5036762;28;20768;-47
2022/05/25 02:12:23;;;;;;;;;;;;;;;9.24;87.56;101253.03;5037228;28;20478;-49
2022/05/25 02:15:00;;;;;;;8.35;4.40;;;;;;;9.26;86.68;101253.59;5022534;28;20142;-48
2022/05/25 02:17:40;;;;;;;6.80;4.07;;;;;;;9.27;85.93;101255.25;5038323;28;20037;-49
2022/05/25 02:20:39;;;;;;;3.50;2.90;;;;;;;9.17;84.07;101259.50;5033991;28;20025;-47
2022/05/25 02:23:36;;;;;;;3.03;2.10;;;;;;;8.98;83.21;101270.25;5037419;28;20143;-47
2022/05/25 02:26:12;;;;;;;4.72;2.63;;;;;;;8.95;83.47;101275.19;5025917;28;20037;-47
2022/05/25 02:28:43;;;;;;;4.10;3.08;;;;;;;8.94;82.95;101270.88;5039369;28;20033;-48
2022/05/25 02:31:17;;;;;;;5.80;4.47;;;;;;;8.90;84.71;101270.53;5041131;28;20401;-48
2022/05/25 02:33:50;;;;;;;8.70;4.90;;;;;;;8.89;85.60;101278.78;5037717;28;20230;-47
2022/05/25 02:36:17;;;;;;;6.85;4.53;;;;;;;8.90;85.92;101273.19;5043665;28;20021;-48
2022/05/25 02:38:44;;;;;;;6.32;4.40;;;;;;;8.92;86.64;101273.78;5039941;28;20037;-49
2022/05/25 02:41:25;;;;;;;6.75;5.13;;;;;;;9.08;86.18;101280.38;5037944;28;20300;-49
2022/05/25 02:43:50;;;;;;;6.70;4.30;;;;;;;9.12;85.97;101278.88;5038751;28;20031;-48
2022/05/25 02:46:16;;;;;;;3.35;2.58;;;;;;;9.06;84.86;101269.91;5035726;28;20029;-48
2022/05/25 02:48:41;;;;;;;2.67;2.40;;;;;;;9.05;83.54;101275.50;5032633;28;20102;-48
2022/05/25 02:51:08;;;;;;;2.58;2.05;;;;;;;8.97;83.34;101278.44;5038856;28;20055;-50
2022/05/25 02:53:34;;;;;;;4.53;2.67;;;;;;;8.96;83.13;101276.81;5037898;28;20040;-50
2022/05/25 02:56:03;;;;;;;7.00;3.00;;;;;;;8.89;82.50;101271.56;5037528;28;20421;-50
2022/05/25 02:58:29;;;;;;;7.20;3.63;;;;;;;8.81;83.24;101277.22;5036306;28;20033;-48
2022/05/25 03:00:55;;;;;;;6.32;3.83;;;;;;;8.77;84.07;101276.84;5034128;28;20624;-47
2022/05/25 03:03:21;;;;;;;7.43;4.40;;;;;;;8.78;84.14;101280.31;5041264;28;20024;-47
2022/05/25 03:05:47;;;;;;;6.97;4.28;;;;;;;8.77;83.66;101281.38;5042384;28;20351;-49
2022/05/25 03:08:13;;;;;;;5.95;3.40;;;;;;;8.74;83.96;101281.81;5037183;28;20037;-51
2022/05/25 03:10:38;;;;;;;4.65;3.30;;;;;;;8.79;83.44;101288.09;5038181;28;20044;-50
2022/05/25 03:13:08;;;;;;;5.32;3.72;;;;;;;8.90;83.08;101293.75;5039441;28;20028;-51
2022/05/25 03:15:34;;;;;;;7.88;4.10;;;;;;;8.94;83.03;101302.97;5043462;28;20028;-48
2022/05/25 03:18:00;;;;;;;6.40;3.65;;;;;;;8.94;82.84;101302.97;5042816;28;20383;-49
2022/05/25 03:20:26;;;;;;;5.90;3.70;;;;;;;8.92;82.19;101300.50;5041907;28;20087;-48
2022/05/25 03:22:52;;;;;;;6.70;3.92;;;;;;;8.87;82.59;101307.56;5043219;28;20072;-48
2022/05/25 03:25:17;;;;;;;7.95;3.65;;;;;;;8.78;83.49;101312.38;5042984;28;20964;-48
2022/05/25 03:27:44;;;;;;;6.30;3.60;;;;;;;8.75;84.72;101315.50;5044010;28;20089;-48
2022/05/25 03:30:11;;;;;;;5.07;3.90;;;;;;;8.83;84.56;101323.25;5037964;28;20028;-47
2022/05/25 03:32:37;;;;;;;5.60;4.10;;;;;;;8.84;85.11;101319.53;5042510;28;20495;-49
2022/05/25 03:35:03;;;;;;;6.60;5.03;;;;;;;8.84;85.61;101318.72;5042600;28;20074;-48
2022/05/25 03:37:29;;;;;;;6.45;4.30;;;;;;;8.89;86.10;101326.88;5038828;28;20026;-50
2022/05/25 03:39:55;;;;;;;5.25;4.15;;;;;;;8.95;86.56;101334.00;5040934;28;20033;-47
2022/05/25 03:42:22;;;;;;;5.55;3.50;;;;;;;9.02;85.90;101337.41;5040041;28;20032;-47
2022/05/25 03:44:48;;;;;;;3.70;3.03;;;;;;;9.06;85.98;101326.06;5044309;28;20044;-50
2022/05/25 03:47:15;;;;;;;5.90;2.90;;;;;;;9.10;85.68;101331.75;5042955;28;20037;-48
2022/05/25 03:49:41;;;;;;;5.53;3.83;;;;;;;9.10;86.43;101323.75;5041023;28;20017;-49
2022/05/25 03:52:06;;;;;;;6.30;4.53;;;;;;;9.14;87.07;101337.47;5041819;28;20474;-48
2022/05/25 03:54:32;;;;;;;7.78;4.72;;;;;;;9.25;87.89;101342.88;5040222;28;20104;-48
2022/05/25 03:56:58;;;;;;;9.52;6.53;;;;;;;9.38;89.16;101350.75;5035963;28;20469;-48
2022/05/25 03:59:24;;;;;;;9.00;6.13;;;;;;;9.49;89.32;101343.81;5044777;28;20033;-47
2022/05/25 04:01:52;;;;;;;9.23;6.38;;;;;;;9.62;89.76;101348.19;5037035;28;20025;-47
2022/05/25 04:04:18;;;;;;;9.85;6.05;;;;;;;9.75;89.63;101348.00;5036440;28;20033;-48
2022/05/25 04:06:46;;;;;;;8.52;6.53;;;;;;;9.89;89.82;101353.97;5039963;28;20036;-50
2022/05/25 04:09:11;;;;;;;7.53;6.13;;;;;;;9.96;89.68;101362.72;5036805;28;20025;-48
2022/05/25 04:11:40;;;;;;;8.40;6.15;;;;;;;10.01;89.68;101360.16;5039453;28;20446;-48
2022/05/25 04:14:05;;;;;;;12.20;6.80;;;;;;;10.09;89.91;101356.34;5039021;28;20025;-48
2022/05/25 04:16:31;;;;;;;7.50;5.80;;;;;;;10.15;90.28;101358.09;5039476;28;20489;-50
2022/05/25 04:18:57;;;;;;;7.25;5.32;;;;;;;10.22;90.60;101348.94;5036856;28;20026;-49
2022/05/25 04:21:23;;;;;;;10.73;5.75;;;;;;;10.27;90.67;101345.59;5036972;28;20029;-47
2022/05/25 04:23:48;;;;;;;9.65;5.72;;;;;;;10.35;90.95;101361.31;5035482;28;20032;-47
2022/05/25 04:26:14;;;;;;;8.45;6.07;;;;;;;10.43;91.21;101360.97;5035455;28;20398;-51
2022/05/25 04:28:39;;;;;;;8.10;5.95;;;;;;;10.51;91.59;101363.31;5039048;28;20108;-49
2022/05/25 04:31:05;;;;;;;9.25;6.22;;;;;;;10.57;92.07;101366.91;5036498;28;20062;-49
2022/05/25 04:33:31;;;;;;;8.57;6.28;;;;;;;10.68;91.70;101370.66;5037370;28;20389;-47
2022/05/25 04:35:57;;;;;;;8.68;6.07;;;;;;;10.74;91.67;101365.16;5034398;28;20071;-47
2022/05/25 04:38:23;;;;;;;10.55;6.43;;;;;;;10.83;91.51;101371.00;5036822;28;20029;-48
2022/05/25 04:40:49;;;;;;;9.07;6.10;;;;;;;10.91;90.96;101367.94;5040008;28;20291;-47
2022/05/25 04:43:19;;;;;;;10.25;7.00;;;;;;;10.95;90.89;101373.66;5036740;28;20057;-48
2022/05/25 04:45:47;;;;;;;10.90;7.28;;;;;;;11.02;91.01;101363.63;5038721;28;20109;-48
2022/05/25 04:48:16;;;;;;;11.75;8.38;;;;;;;11.09;90.30;101356.25;5035757;28;20036;-48
2022/05/25 04:50:44;;;;;;;11.35;7.07;;;;;;;11.11;91.12;101356.84;5035661;28;20033;-47
2022/05/25 04:53:12;;;;;;;9.93;6.93;;;;;;;11.18;90.78;101354.84;5036168;28;20115;-48
2022/05/25 04:58:28;;;;;;;9.85;7.22;;;;;;;11.28;91.19;101364.97;5037076;28;20053;-48
2022/05/25 05:00:54;;;;;;;10.45;6.53;;;;;;;11.35;90.72;101355.75;5034995;28;20030;-50
2022/05/25 05:03:21;;;;;;;10.60;7.30;;;;;;;11.42;90.49;101367.13;5036185;28;20402;-48
2022/05/25 05:05:47;;;;;;;9.13;7.47;;;;;;;11.47;90.54;101377.16;5036471;28;20211;-48
2022/05/25 05:08:13;;;;;;;10.45;7.35;;;;;;;11.53;89.96;101375.41;5034019;28;20029;-49
2022/05/25 05:10:39;;;;;;;11.68;7.72;;;;;;;11.61;90.34;101373.13;5034145;28;20503;-47
2022/05/25 05:13:36;;;;;;;9.50;7.10;;;;;;;11.64;89.82;101367.28;5034395;28;20494;-48
2022/05/25 05:16:05;;;;;;;8.57;6.78;;;;;;;11.72;89.09;101371.47;5023757;28;20047;-48
2022/05/25 05:18:30;;;;;;;8.98;6.85;;;;;;;11.79;89.28;101375.66;5036749;28;20032;-47
2022/05/25 05:20:56;;;;;;;9.32;6.35;;;;;;;11.87;89.13;101379.03;5034140;28;20032;-48
2022/05/25 05:23:21;;;;;;;8.48;6.28;;;;;;;11.92;88.49;101376.41;5035505;28;20032;-48
2022/05/25 05:25:47;;;;;;;9.43;6.75;;;;;;;11.96;88.47;101373.00;5036930;28;20028;-47
2022/05/25 05:28:19;;;;;;;9.10;6.60;;;;;;;12.03;87.84;101373.69;5028164;28;20044;-49
2022/05/25 05:30:53;;;;;;;9.40;6.65;;;;;;;12.11;87.59;101372.47;5034079;28;20053;-48
2022/05/25 05:33:20;;;;;;;9.88;7.07;;;;;;;12.18;87.45;101365.03;5028042;28;20124;-48
2022/05/25 05:35:48;;;;;;;9.70;6.97;;;;;;;12.24;87.68;101379.41;5037034;28;20024;-50
2022/05/25 05:38:17;;;;;;;9.07;6.53;;;;;;;12.24;87.51;101379.41;5037812;28;20042;-49
2022/05/25 05:40:43;;;;;;;9.82;7.32;;;;;;;12.28;87.36;101372.47;5038467;28;20021;-48
2022/05/25 05:43:09;;;;;;;9.25;6.78;;;;;;;12.25;88.06;101378.34;5034527;28;20033;-50
2022/05/25 05:45:40;;;;;;;9.93;7.43;;;;;;;12.22;88.60;101381.50;5036726;28;20529;-49
2022/05/25 05:48:20;;;;;;;10.05;7.25;;;;;;;12.22;88.84;101384.22;5039585;28;20048;-48
2022/05/25 05:50:54;;;;;;;10.93;6.85;;;;;;;12.28;88.13;101391.28;5041366;28;20529;-50
2022/05/25 05:53:21;;;;;;;10.00;7.53;;;;;;;12.34;87.81;101393.78;5037596;28;20044;-47
2022/05/25 05:55:47;;;;;;;10.80;7.40;;;;;;;12.40;87.23;101397.41;5042861;28;20024;-50
2022/05/25 05:58:12;;;;;;;13.00;7.30;;;;;;;12.47;86.25;101389.97;5036408;28;20597;-48
2022/05/25 06:00:39;;;;;;;9.10;7.45;;;;;;;12.54;86.13;101397.88;5039130;28;20190;-48
2022/05/25 06:03:04;;;;;;;9.35;7.45;;;;;;;12.61;86.22;101396.66;5038620;28;20470;-49
2022/05/25 06:05:30;;;;;;;7.88;7.05;;;;;;;12.66;85.91;101395.91;5035878;28;20036;-49
2022/05/25 06:07:56;;;;;;;11.10;6.97;;;;;;;12.73;85.34;101395.72;5036132;28;20036;-48
2022/05/25 06:10:22;;;;;;;9.57;6.93;;;;;;;12.77;85.13;101405.78;5033835;28;20029;-48
2022/05/25 06:12:48;;;;;;;9.90;6.88;;;;;;;12.83;84.91;101403.97;5037444;28;20028;-48
2022/05/25 06:20:47;;;;;;;11.85;7.43;;;;;;;12.94;83.88;101417.31;5035073;28;20047;-48
2022/05/25 06:23:13;;;;;;;10.50;8.00;;;;;;;12.93;83.92;101417.56;5035918;28;20079;-48
2022/05/25 06:25:38;;;;;;;11.55;8.30;;;;;;;12.93;83.99;101412.19;5034600;28;20029;-47
2022/05/25 06:28:04;;;;;;;10.02;7.65;;;;;;;13.02;84.83;101416.06;5036136;28;20079;-51
2022/05/25 06:30:29;;;;;;;9.75;7.05;;;;;;;13.14;84.13;101418.66;5034996;28;20212;-48
2022/05/25 06:32:55;;;;;;;11.95;7.38;;;;;;;13.25;84.53;101409.66;5038616;28;20162;-48
2022/05/25 06:35:21;;;;;;;9.38;7.07;;;;;;;13.39;84.42;101407.44;5032552;28;20039;-47
2022/05/25 06:37:47;;;;;;;10.43;7.07;;;;;;;13.43;83.28;101414.75;5036675;28;20064;-47
2022/05/25 06:40:13;;;;;;;10.88;6.57;;;;;;;13.55;83.40;101418.13;5036534;28;20224;-46
2022/05/25 06:42:41;;;;;;;11.18;7.05;;;;;;;13.67;82.38;101422.59;5033385;28;20494;-48
2022/05/25 06:45:08;;;;;;;10.60;7.32;;;;;;;13.74;82.23;101412.41;5035269;28;20035;-48
2022/05/25 06:47:34;;;;;;;10.25;7.15;;;;;;;13.88;81.97;101422.56;5032188;28;20025;-48
2022/05/25 06:50:01;;;;;;;12.10;7.65;;;;;;;14.01;80.58;101415.94;5033541;28;20494;-47
2022/05/25 06:52:27;;;;;;;8.80;6.65;;;;;;;14.11;80.38;101426.00;5033613;28;20017;-48
2022/05/25 06:54:55;;;;;;;8.32;6.53;;;;;;;14.26;80.34;101430.72;5034882;28;20382;-47
2022/05/25 06:57:22;;;;;;;9.00;6.72;;;;;;;14.37;80.05;101438.66;5034554;28;20294;-48
2022/05/25 06:59:48;;;;;;;9.00;6.80;;;;;;;14.49;79.78;101431.22;5036982;28;20499;-48
2022/05/25 07:02:13;;;;;;;8.80;7.13;;;;;;;14.63;79.20;101439.69;5036468;28;20040;-47
2022/05/25 07:04:39;;;;;;;10.45;7.65;;;;;;;14.76;77.97;101433.88;5032831;28;20394;-48
2022/05/25 07:07:05;;;;;;;9.93;6.45;;;;;;;14.87;76.67;101436.63;5033324;28;20751;-48
2022/05/25 07:09:31;;;;;;;9.63;7.03;;;;;;;15.02;76.38;101429.44;5036561;28;20475;-48
2022/05/25 07:11:58;;;;;;;11.35;6.28;;;;;;;15.16;76.18;101429.78;5034550;28;20037;-49
2022/05/25 07:14:25;;;;;;;11.15;6.45;;;;;;;15.15;75.91;101438.16;5034134;28;20107;-47
2022/05/25 07:16:50;;;;;;;10.27;6.63;;;;;;;15.31;75.80;101432.56;5032466;28;20032;-48
2022/05/25 07:19:16;;;;;;;7.75;6.28;;;;;;;15.47;75.44;101440.75;5034258;28;20041;-48
2022/05/25 07:21:41;;;;;;;6.90;5.93;;;;;;;15.65;75.39;101434.91;5033544;28;20029;-51
2022/05/25 07:24:07;;;;;;;8.90;6.80;;;;;;;15.86;75.13;101425.78;5034748;28;20021;-48
2022/05/25 07:26:33;;;;;;;8.48;6.50;;;;;;;16.07;74.97;101433.94;5033974;28;20025;-50
2022/05/25 07:28:59;;;;;;;9.93;5.75;;;;;;;16.14;71.95;101432.56;5036400;28;20479;-48
2022/05/25 07:31:29;;;;;;;7.80;5.50;;;;;;;16.26;70.10;101437.75;5032151;28;20021;-48
2022/05/25 07:33:59;;;;;;;6.28;5.63;;;;;;;16.38;68.11;101424.78;5041253;28;20037;-48
2022/05/25 07:36:25;;;;;;;6.47;4.93;;;;;;;16.58;68.80;101441.00;5033967;28;20017;-47
2022/05/25 07:38:54;;;;;;;7.28;5.80;;;;;;;16.65;68.13;101435.31;5043695;28;20570;-48
2022/05/25 07:41:19;;;;;;;6.50;5.72;;;;;;;16.80;67.23;101442.63;5040990;28;20026;-49
2022/05/25 07:43:47;;;;;;;8.35;6.10;;;;;;;16.88;66.85;101439.38;5039011;28;20036;-47
2022/05/25 07:46:13;;;;;;;7.05;5.25;;;;;;;16.89;66.20;101441.00;5036138;28;20041;-51
2022/05/25 07:48:38;;;;;;;6.60;5.78;;;;;;;17.00;66.81;101445.31;5041260;28;20491;-49
2022/05/25 07:51:05;;;;;;;8.75;5.50;;;;;;;17.14;66.57;101440.13;5035251;28;20204;-48
2022/05/25 07:56:16;;;;;;;5.10;4.20;;;;;;;17.33;64.89;101443.06;5038399;28;20036;-50
2022/05/25 07:58:42;;;;;;;8.15;3.97;;;;;;;17.40;63.66;101440.84;5041387;28;20033;-48
2022/05/25 08:01:14;;;;;;;5.95;4.20;;;;;;;17.53;62.82;101441.06;5042246;28;20125;-48
2022/05/25 08:06:26;;;;;;;6.00;3.97;;;;;;;17.58;61.55;101442.94;5040818;28;20118;-48
2022/05/25 08:08:53;;;;;;;5.20;3.58;;;;;;;17.71;61.38;101447.00;5037100;28;20130;-49
2022/05/25 08:11:21;;;;;;;5.15;3.60;;;;;;;17.75;59.73;101448.03;5046709;28;20120;-48
2022/05/25 08:13:50;;;;;;;3.75;3.10;;;;;;;17.89;58.96;101449.06;5042161;28;20065;-48
2022/05/25 08:16:16;;;;;;;5.00;3.85;;;;;;;17.96;59.62;101451.47;5039359;28;20115;-48
2022/05/25 08:18:42;;;;;;;5.10;2.95;;;;;;;18.03;58.40;101443.84;5039494;28;20123;-50
2022/05/25 08:21:08;;;;;;;4.25;2.58;;;;;;;18.02;56.16;101447.63;5040347;28;20040;-48
2022/05/25 08:23:34;;;;;;;2.80;2.33;;;;;;;18.02;55.09;101445.75;5041856;28;20059;-48
2022/05/25 08:25:59;;;;;;;3.70;2.20;;;;;;;18.04;55.35;101434.59;5040712;28;20657;-49
2022/05/25 08:28:25;;;;;;;3.38;2.00;;;;;;;18.14;54.27;101442.69;5039632;28;20166;-48
2022/05/25 08:30:51;;;;;;;2.58;2.00;;;;;;;18.05;52.71;101441.66;5038198;28;20471;-49
2022/05/25 08:33:20;;;;;;;3.42;1.80;;;;;;;18.15;53.54;101455.16;5039800;28;20052;-48
2022/05/25 08:35:46;;;;;;;2.80;1.65;;;;;;;18.14;52.87;101460.88;5039700;28;20059;-47
2022/05/25 08:38:12;;;;;;;1.30;1.20;;;;;;;18.10;52.34;101449.75;5036432;28;20731;-51
2022/05/25 08:40:39;;;;;;;1.95;1.23;;;;;;;17.99;51.85;101459.06;5039985;28;20485;-50
2022/05/25 08:43:19;;;;;;;2.13;1.50;;;;;;;18.03;52.39;101457.41;5042627;28;20398;-50
2022/05/25 08:45:52;;;;;;;2.92;1.40;;;;;;;18.02;51.46;101453.06;5041867;28;20623;-48
2022/05/25 08:48:20;;;;;;;2.58;1.83;;;;;;;17.96;50.69;101460.44;5039867;28;20033;-48
2022/05/25 08:50:53;;;;;;;1.48;1.33;;;;;;;17.94;50.01;101456.34;5043111;28;20074;-49
2022/05/25 08:53:21;;;;;;;2.15;1.08;;;;;;;17.91;50.73;101456.91;5036090;28;20108;-48
2022/05/25 08:55:55;;;;;;;5.53;1.90;;;;;;;17.93;50.89;101463.66;5040637;28;20025;-50
2022/05/25 08:58:24;;;;;;;3.58;1.65;;;;;;;17.92;50.68;101461.25;5041418;28;20038;-49
2022/05/25 09:00:52;;;;;;;2.45;1.63;;;;;;;17.85;49.70;101463.47;5040505;28;21075;-48
2022/05/25 09:03:30;;;;;;;3.20;1.70;;;;;;;17.72;49.85;101471.09;5035277;28;20029;-48
2022/05/25 09:06:07;;;;;;;1.92;1.70;;;;;;;17.68;50.48;101472.75;5040827;28;20036;-50
2022/05/25 09:08:52;;;;;;;3.03;1.60;;;;;;;17.75;51.27;101470.53;5038635;28;20110;-49
2022/05/25 09:11:25;;;;;;;6.07;1.80;;;;;;;17.87;51.07;101464.00;5040567;28;20072;-49
2022/05/25 09:13:56;;;;;;;3.30;1.83;;;;;;;17.93;51.40;101476.41;5037892;28;20041;-50
2022/05/25 09:16:23;;;;;;;1.75;1.60;;;;;;;17.93;51.68;101471.00;5038118;28;20059;-47
2022/05/25 09:19:17;;;;;;;2.65;1.63;;;;;;;17.84;51.14;101472.69;5038434;28;20041;-49
2022/05/25 09:22:08;;;;;;;2.42;1.60;;;;;;;17.83;51.44;101477.28;5037318;28;20068;-49
2022/05/25 09:24:35;;;;;;;3.40;2.13;;;;;;;17.78;51.95;101478.13;5039489;28;20064;-51
2022/05/25 09:27:03;;;;;;;2.85;1.80;;;;;;;17.81;52.26;101485.72;5038749;28;20507;-51
2022/05/25 09:29:29;;;;;;;3.47;1.85;;;;;;;17.88;52.50;101484.59;5039212;28;20031;-49
2022/05/25 09:32:19;;;;;;;4.05;2.20;;;;;;;17.90;52.24;101476.97;5038767;28;20037;-48
2022/05/25 09:34:49;;;;;;;5.68;2.10;;;;;;;17.89;52.43;101486.19;5035301;28;20036;-49
2022/05/25 09:37:23;;;;;;;3.97;2.20;;;;;;;17.94;52.52;101484.25;5037660;28;20044;-47
2022/05/25 09:39:51;;;;;;;5.27;2.07;;;;;;;18.01;51.80;101479.38;5039601;28;20029;-47
2022/05/25 09:42:20;;;;;;;2.20;1.85;;;;;;;18.29;52.21;101475.09;5039394;28;20096;-46
2022/05/25 09:44:52;;;;;;;2.78;1.90;;;;;;;18.53;51.77;101474.41;5036255;28;20033;-47
2022/05/25 09:47:41;;;;;;;2.30;1.70;;;;;;;18.54;50.21;101476.03;5038059;28;20045;-47
2022/05/25 09:50:13;;;;;;;3.80;2.33;;;;;;;18.75;50.01;101479.41;5037419;28;20036;-47
2022/05/25 09:52:46;;;;;;;4.25;1.73;;;;;;;18.86;49.77;101476.34;5037016;28;20359;-46
2022/05/25 09:55:28;;;;;;;2.38;1.60;;;;;;;18.66;47.75;101474.56;5034873;28;20029;-47
2022/05/25 09:58:00;;;;;;;2.05;1.70;;;;;;;18.62;48.90;101472.69;5040848;28;20465;-45
2022/05/25 10:00:37;;;;;;;3.10;1.65;;;;;;;18.72;48.88;101472.66;5038794;28;20068;-46
2022/05/25 10:03:11;;;;;;;3.00;1.95;;;;;;;18.77;48.75;101467.16;5035734;28;20378;-46
2022/05/25 10:05:51;;;;;;;2.13;1.90;;;;;;;18.66;48.69;101468.34;5042337;28;20041;-47
2022/05/25 10:08:30;;;;;;;2.97;1.90;;;;;;;18.60;49.27;101470.25;5033640;28;20033;-47
2022/05/25 10:11:00;;;;;;;3.55;2.28;;;;;;;18.41;50.30;101466.63;5037971;28;20730;-48
2022/05/25 10:13:46;;;;;;;2.55;2.35;;;;;;;18.27;49.91;101458.31;5035428;28;20033;-48
2022/05/25 10:16:28;;;;;;;4.53;2.03;;;;;;;18.49;50.37;101468.75;5036252;28;20089;-48
2022/05/25 10:18:56;;;;;;;2.30;1.92;;;;;;;18.57;50.50;101464.59;5040249;28;20124;-49
2022/05/25 10:21:28;;;;;;;3.40;1.70;;;;;;;18.71;49.47;101463.69;5039343;28;20029;-48
2022/05/25 10:23:55;;;;;;;1.63;1.38;;;;;;;18.75;49.01;101455.78;5035999;28;20037;-49
2022/05/25 10:26:32;;;;;;;2.88;1.15;;;;;;;18.74;48.33;101459.59;5040426;28;20049;-48
2022/05/25 10:29:10;;;;;;;2.00;1.10;;;;;;;18.85;47.27;101454.88;5031819;28;20078;-50
2022/05/25 10:37:28;;;;;;;1.27;1.17;;;;;;;19.08;46.90;101445.16;5033322;28;20143;-49
2022/05/25 10:39:53;;;;;;;2.55;1.30;;;;;;;19.36;47.12;101441.56;5034551;28;20033;-49
2022/05/25 10:42:32;;;;;;;1.90;1.10;;;;;;;19.75;45.79;101443.28;5041005;28;20032;-49
2022/05/25 10:45:03;;;;;;;2.97;1.20;;;;;;;19.83;45.35;101438.00;5032640;28;20029;-49
2022/05/25 10:47:54;;;;;;;1.45;1.10;;;;;;;19.92;44.97;101430.78;5037860;28;20037;-49
2022/05/25 10:50:25;;;;;;;4.28;1.60;;;;;;;20.11;45.54;101433.53;5029813;28;20498;-48
2022/05/25 10:53:01;;;;;;;3.15;1.60;;;;;;;20.07;44.35;101429.75;5031577;28;20060;-49
2022/05/25 10:55:34;;;;;;;1.73;1.20;;;;;;;20.09;43.50;101424.81;5033178;28;20036;-49
2022/05/25 10:58:18;;;;;;;0.95;0.90;;;;;;;20.08;43.21;101417.78;5030404;28;20036;-49
2022/05/25 11:00:46;;;;;;;2.30;1.17;;;;;;;20.01;42.96;101422.78;5038390;28;20479;-49
2022/05/25 11:03:21;;;;;;;1.48;1.15;;;;;;;20.29;43.71;101421.00;5036888;28;20125;-49
2022/05/25 11:06:02;;;;;;;2.97;1.42;;;;;;;20.45;43.47;101425.09;5031987;28;20032;-49
2022/05/25 11:08:33;;;;;;;6.05;1.65;;;;;;;20.59;42.48;101408.81;5033739;28;20242;-52
2022/05/25 11:11:12;;;;;;;1.90;1.00;;;;;;;20.68;41.40;101415.19;5036220;28;20032;-48
2022/05/25 11:14:00;;;;;;;2.13;1.02;;;;;;;20.70;41.38;101410.25;5035442;28;20108;-49
2022/05/25 11:16:55;;;;;;;1.77;1.10;;;;;;;20.52;40.93;101424.72;5033927;28;20045;-48
2022/05/25 11:19:32;;;;;;;2.75;1.15;;;;;;;20.18;41.52;101416.81;5045958;28;20515;-49
2022/05/25 11:22:21;;;;;;;2.50;1.38;;;;;;;20.05;43.01;101407.50;5038414;28;20030;-49
2022/05/25 11:25:17;;;;;;;1.95;1.02;;;;;;;20.06;42.64;101411.81;5038506;28;20026;-49
2022/05/25 11:28:00;;;;;;;4.40;1.58;;;;;;;19.98;42.98;101406.25;5038848;28;20041;-49
2022/05/25 11:31:04;;;;;;;2.10;1.23;;;;;;;20.09;43.40;101394.91;5041498;28;20043;-48
2022/05/25 11:33:57;;;;;;;1.85;1.30;;;;;;;20.42;44.11;101406.66;5003279;28;20063;-51
2022/05/25 11:37:04;;;;;;;2.33;1.20;;;;;;;20.52;42.63;101397.50;5038564;28;20204;-51
2022/05/25 11:39:39;;;;;;;2.20;1.20;;;;;;;20.54;42.29;101399.94;5041143;28;20030;-48
2022/05/25 11:42:27;;;;;;;2.85;1.30;;;;;;;20.40;42.12;101400.66;5046662;28;20055;-51
2022/05/25 11:45:32;;;;;;;2.13;1.55;;;;;;;20.17;40.83;101396.97;5043774;28;20256;-49
2022/05/25 11:48:19;;;;;;;2.30;0.98;;;;;;;20.20;41.31;101393.66;5032166;28;20033;-51
2022/05/25 11:50:52;;;;;;;1.20;0.90;;;;;;;20.57;41.23;101385.72;5037860;28;20035;-48
2022/05/25 11:53:27;;;;;;;2.65;1.15;;;;;;;20.86;39.91;101388.19;5046206;28;20108;-48
2022/05/25 11:56:11;;;;;;;3.10;1.20;;;;;;;21.19;41.28;101392.44;5040909;28;20576;-51
2022/05/25 11:58:37;;;;;;;2.13;1.15;;;;;;;21.56;39.90;101396.06;5042414;28;20160;-48
2022/05/25 12:01:13;;;;;;;2.60;1.40;;;;;;;21.34;39.03;101396.78;5047513;28;20404;-48
2022/05/25 12:04:04;;;;;;;2.53;1.60;;;;;;;20.94;39.45;101406.53;5039698;28;20115;-48
2022/05/25 12:06:59;;;;;;;3.00;1.73;;;;;;;20.61;40.47;101390.25;5044200;28;20055;-48
2022/05/25 12:09:39;;;;;;;2.30;1.42;;;;;;;20.50;40.88;101386.13;5044568;28;20028;-50
2022/05/25 12:12:28;;;;;;;1.42;1.30;;;;;;;20.27;41.16;101384.28;5044989;28;20114;-49
2022/05/25 12:15:20;;;;;;;3.33;1.40;;;;;;;20.31;42.24;101388.06;5016221;28;20114;-48